KACT

Waco Regional Airport

Waco, Texas, USA
METAR KACT 201051Z AUTO 35006KT 10SM CLR M02/M06 A3039 RMK AO2 SLP293 T10221061
Observed Flight Rules
Jan-20 @ 10:51 UTC (34 minutes ago) Visual Flight Rules
Wind Visibility Clouds
350° at 6 knots 10 miles
  • Clear skies
Temperatures Readings
Current -2°C / 28°F
Dewpoint -6°C / 21°F
Humidity 74%
Altimeter 30.39" Hg
Pressure 1029.3 hPa
Elevation 151
METAR KACT 201051Z AUTO 35006KT 10SM CLR M02/M06 A3039 RMK AO2 SLP293 T10221061
Observed Flight Rules
Jan-20 @ 10:51 UTC
(34 minutes ago)
VFR
Wind Visibility
350° at 6 knots 10 miles
Clouds
  • Clear skies
Temperature Dewpoint
-2°C / 28°F -6°C / 21°F
Humidity Altimeter Pressure
74% 30.39" Hg 1029.3 hPa